sensor_id;sensor_type;location;lat;lon;timestamp;pressure;altitude;pressure_sealevel;temperature;humidity
62864;BME280;48954;59.950;11.014;2024-03-23T00:54:03;97707.03;;;1.54;65.00
62864;BME280;48954;59.950;11.014;2024-03-23T00:56:29;97702.15;;;1.55;65.07
62864;BME280;48954;59.950;11.014;2024-03-23T00:58:55;97697.70;;;1.56;65.23
62864;BME280;48954;59.950;11.014;2024-03-23T01:01:22;97693.52;;;1.56;65.21
62864;BME280;48954;59.950;11.014;2024-03-23T01:03:50;97690.42;;;1.56;65.48
62864;BME280;48954;59.950;11.014;2024-03-23T01:06:17;97686.17;;;1.57;65.33
62864;BME280;48954;59.950;11.014;2024-03-23T01:08:43;97685.58;;;1.57;65.59
62864;BME280;48954;59.950;11.014;2024-03-23T01:11:11;97683.16;;;1.56;65.65
62864;BME280;48954;59.950;11.014;2024-03-23T01:13:37;97680.06;;;1.57;65.84
62864;BME280;48954;59.950;11.014;2024-03-23T01:16:03;97674.02;;;1.56;65.96
62864;BME280;48954;59.950;11.014;2024-03-23T01:18:29;97666.27;;;1.56;66.29
62864;BME280;48954;59.950;11.014;2024-03-23T01:20:55;97668.67;;;1.55;66.65
62864;BME280;48954;59.950;11.014;2024-03-23T01:23:20;97670.50;;;1.54;66.82
62864;BME280;48954;59.950;11.014;2024-03-23T01:25:52;97664.27;;;1.53;66.87
62864;BME280;48954;59.950;11.014;2024-03-23T01:28:19;97658.62;;;1.52;67.18
62864;BME280;48954;59.950;11.014;2024-03-23T01:30:45;97653.34;;;1.52;67.18
62864;BME280;48954;59.950;11.014;2024-03-23T01:33:13;97648.42;;;1.51;67.51
62864;BME280;48954;59.950;11.014;2024-03-23T01:35:39;97635.33;;;1.50;67.74
62864;BME280;48954;59.950;11.014;2024-03-23T01:38:05;97634.98;;;1.49;67.67
62864;BME280;48954;59.950;11.014;2024-03-23T01:40:31;97631.89;;;1.49;67.77
62864;BME280;48954;59.950;11.014;2024-03-23T01:43:04;97624.92;;;1.49;68.05
62864;BME280;48954;59.950;11.014;2024-03-23T01:45:30;97621.00;;;1.50;68.08
62864;BME280;48954;59.950;11.014;2024-03-23T01:47:57;97620.14;;;1.50;68.20
62864;BME280;48954;59.950;11.014;2024-03-23T01:50:23;97620.20;;;1.49;68.27
62864;BME280;48954;59.950;11.014;2024-03-23T01:52:50;97620.36;;;1.49;68.41
62864;BME280;48954;59.950;11.014;2024-03-23T01:55:17;97624.35;;;1.51;68.60
62864;BME280;48954;59.950;11.014;2024-03-23T01:57:43;97621.65;;;1.51;68.56
62864;BME280;48954;59.950;11.014;2024-03-23T02:00:10;97623.93;;;1.50;68.61
62864;BME280;48954;59.950;11.014;2024-03-23T02:02:36;97624.92;;;1.49;68.59
62864;BME280;48954;59.950;11.014;2024-03-23T02:05:02;97621.66;;;1.48;68.98
62864;BME280;48954;59.950;11.014;2024-03-23T02:07:29;97620.92;;;1.47;68.81
62864;BME280;48954;59.950;11.014;2024-03-23T02:09:55;97622.21;;;1.46;69.13
62864;BME280;48954;59.950;11.014;2024-03-23T02:12:21;97616.59;;;1.47;69.28
62864;BME280;48954;59.950;11.014;2024-03-23T02:14:47;97617.36;;;1.47;69.14
62864;BME280;48954;59.950;11.014;2024-03-23T02:17:15;97610.52;;;1.46;69.32
62864;BME280;48954;59.950;11.014;2024-03-23T02:19:41;97618.37;;;1.47;69.63
62864;BME280;48954;59.950;11.014;2024-03-23T02:22:07;97618.03;;;1.46;69.87
62864;BME280;48954;59.950;11.014;2024-03-23T02:24:33;97617.33;;;1.45;69.88
62864;BME280;48954;59.950;11.014;2024-03-23T02:26:59;97611.38;;;1.46;69.89
62864;BME280;48954;59.950;11.014;2024-03-23T02:29:25;97611.92;;;1.46;70.20
62864;BME280;48954;59.950;11.014;2024-03-23T02:31:51;97612.61;;;1.45;70.35
62864;BME280;48954;59.950;11.014;2024-03-23T02:34:17;97605.70;;;1.44;70.58
62864;BME280;48954;59.950;11.014;2024-03-23T02:36:42;97602.34;;;1.42;70.78
62864;BME280;48954;59.950;11.014;2024-03-23T02:39:08;97599.08;;;1.42;70.73
62864;BME280;48954;59.950;11.014;2024-03-23T02:41:34;97594.95;;;1.41;70.76
62864;BME280;48954;59.950;11.014;2024-03-23T02:44:00;97592.69;;;1.40;70.95
62864;BME280;48954;59.950;11.014;2024-03-23T02:46:26;97588.35;;;1.40;71.03
62864;BME280;48954;59.950;11.014;2024-03-23T02:48:52;97587.58;;;1.40;71.25
62864;BME280;48954;59.950;11.014;2024-03-23T02:51:18;97587.58;;;1.40;71.35
62864;BME280;48954;59.950;11.014;2024-03-23T02:53:45;97581.24;;;1.40;71.39
62864;BME280;48954;59.950;11.014;2024-03-23T02:56:11;97579.58;;;1.42;71.40
62864;BME280;48954;59.950;11.014;2024-03-23T02:58:37;97580.83;;;1.43;71.70
62864;BME280;48954;59.950;11.014;2024-03-23T03:01:03;97578.09;;;1.45;71.68
62864;BME280;48954;59.950;11.014;2024-03-23T03:03:29;97580.83;;;1.47;71.97
62864;BME280;48954;59.950;11.014;2024-03-23T03:05:56;97583.04;;;1.48;71.69
62864;BME280;48954;59.950;11.014;2024-03-23T03:08:22;97580.19;;;1.49;72.05
62864;BME280;48954;59.950;11.014;2024-03-23T03:10:48;97579.87;;;1.49;71.77
62864;BME280;48954;59.950;11.014;2024-03-23T03:13:14;97576.67;;;1.48;71.80
62864;BME280;48954;59.950;11.014;2024-03-23T03:15:42;97569.38;;;1.46;71.92
62864;BME280;48954;59.950;11.014;2024-03-23T03:18:10;97567.80;;;1.46;72.12
62864;BME280;48954;59.950;11.014;2024-03-23T03:20:39;97568.29;;;1.47;72.32
62864;BME280;48954;59.950;11.014;2024-03-23T03:23:06;97568.30;;;1.47;72.46
62864;BME280;48954;59.950;11.014;2024-03-23T03:25:33;97564.52;;;1.48;72.62
62864;BME280;48954;59.950;11.014;2024-03-23T03:28:00;97558.95;;;1.48;72.84
62864;BME280;48954;59.950;11.014;2024-03-23T03:30:26;97558.39;;;1.47;72.70
62864;BME280;48954;59.950;11.014;2024-03-23T03:32:53;97558.20;;;1.49;72.70
62864;BME280;48954;59.950;11.014;2024-03-23T03:35:20;97555.27;;;1.49;72.78
62864;BME280;48954;59.950;11.014;2024-03-23T03:37:46;97555.42;;;1.49;72.97
62864;BME280;48954;59.950;11.014;2024-03-23T03:40:17;97558.80;;;1.51;73.07
62864;BME280;48954;59.950;11.014;2024-03-23T03:42:44;97557.14;;;1.53;73.12
62864;BME280;48954;59.950;11.014;2024-03-23T03:45:10;97553.15;;;1.54;73.11
62864;BME280;48954;59.950;11.014;2024-03-23T03:47:36;97555.81;;;1.56;73.15
62864;BME280;48954;59.950;11.014;2024-03-23T03:50:04;97550.64;;;1.57;73.27
62864;BME280;48954;59.950;11.014;2024-03-23T03:52:30;97548.05;;;1.59;73.35
62864;BME280;48954;59.950;11.014;2024-03-23T03:55:01;97546.06;;;1.60;73.13
62864;BME280;48954;59.950;11.014;2024-03-23T03:57:28;97543.33;;;1.62;73.13
62864;BME280;48954;59.950;11.014;2024-03-23T03:59:54;97537.09;;;1.63;73.32
62864;BME280;48954;59.950;11.014;2024-03-23T04:02:20;97539.20;;;1.64;73.38
62864;BME280;48954;59.950;11.014;2024-03-23T04:04:46;97531.88;;;1.65;73.30
62864;BME280;48954;59.950;11.014;2024-03-23T04:07:14;97529.76;;;1.68;73.45
62864;BME280;48954;59.950;11.014;2024-03-23T04:09:40;97524.82;;;1.69;73.44
62864;BME280;48954;59.950;11.014;2024-03-23T04:12:06;97524.59;;;1.69;73.61
62864;BME280;48954;59.950;11.014;2024-03-23T04:14:32;97519.48;;;1.70;73.48
62864;BME280;48954;59.950;11.014;2024-03-23T04:16:59;97519.97;;;1.71;73.62
62864;BME280;48954;59.950;11.014;2024-03-23T04:19:24;97520.25;;;1.70;73.70
62864;BME280;48954;59.950;11.014;2024-03-23T04:21:50;97519.76;;;1.71;73.84
62864;BME280;48954;59.950;11.014;2024-03-23T04:24:16;97522.40;;;1.72;73.94
62864;BME280;48954;59.950;11.014;2024-03-23T04:26:44;97524.52;;;1.73;73.85
62864;BME280;48954;59.950;11.014;2024-03-23T04:29:10;97524.14;;;1.74;74.08
62864;BME280;48954;59.950;11.014;2024-03-23T04:31:36;97520.25;;;1.73;74.03
62864;BME280;48954;59.950;11.014;2024-03-23T04:34:02;97517.85;;;1.73;74.08
62864;BME280;48954;59.950;11.014;2024-03-23T04:36:28;97516.30;;;1.72;74.26
62864;BME280;48954;59.950;11.014;2024-03-23T04:38:56;97516.60;;;1.72;74.23
62864;BME280;48954;59.950;11.014;2024-03-23T04:41:22;97512.54;;;1.71;74.32
62864;BME280;48954;59.950;11.014;2024-03-23T04:43:49;97506.63;;;1.70;74.46
62864;BME280;48954;59.950;11.014;2024-03-23T04:46:15;97503.67;;;1.68;74.64
62864;BME280;48954;59.950;11.014;2024-03-23T04:48:41;97500.73;;;1.68;74.82
62864;BME280;48954;59.950;11.014;2024-03-23T04:51:08;97494.60;;;1.67;74.99
62864;BME280;48954;59.950;11.014;2024-03-23T04:53:34;97498.02;;;1.67;75.22
62864;BME280;48954;59.950;11.014;2024-03-23T04:56:00;97498.64;;;1.68;75.21
62864;BME280;48954;59.950;11.014;2024-03-23T04:58:26;97498.73;;;1.68;75.46
62864;BME280;48954;59.950;11.014;2024-03-23T05:00:56;97495.76;;;1.67;75.49
62864;BME280;48954;59.950;11.014;2024-03-23T05:03:22;97497.86;;;1.67;75.43
62864;BME280;48954;59.950;11.014;2024-03-23T05:05:48;97500.43;;;1.69;75.73
62864;BME280;48954;59.950;11.014;2024-03-23T05:08:15;97499.14;;;1.70;75.71
62864;BME280;48954;59.950;11.014;2024-03-23T05:10:42;97490.82;;;1.72;76.12
62864;BME280;48954;59.950;11.014;2024-03-23T05:13:08;97496.99;;;1.75;75.93
62864;BME280;48954;59.950;11.014;2024-03-23T05:15:34;97495.39;;;1.76;75.91
62864;BME280;48954;59.950;11.014;2024-03-23T05:18:01;97494.27;;;1.78;76.00
62864;BME280;48954;59.950;11.014;2024-03-23T05:20:27;97493.47;;;1.80;76.33
62864;BME280;48954;59.950;11.014;2024-03-23T05:22:55;97490.33;;;1.83;76.36
62864;BME280;48954;59.950;11.014;2024-03-23T05:25:21;97486.13;;;1.85;76.71
62864;BME280;48954;59.950;11.014;2024-03-23T05:27:47;97482.95;;;1.89;76.61
62864;BME280;48954;59.950;11.014;2024-03-23T05:30:16;97480.98;;;1.91;76.80
62864;BME280;48954;59.950;11.014;2024-03-23T05:32:46;97478.73;;;1.95;76.80
62864;BME280;48954;59.950;11.014;2024-03-23T05:35:13;97474.60;;;1.98;76.99
62864;BME280;48954;59.950;11.014;2024-03-23T05:37:39;97469.36;;;1.99;77.04
62864;BME280;48954;59.950;11.014;2024-03-23T05:40:08;97468.29;;;2.03;77.00
62864;BME280;48954;59.950;11.014;2024-03-23T05:42:34;97465.69;;;2.05;77.14
62864;BME280;48954;59.950;11.014;2024-03-23T05:44:59;97467.90;;;2.08;77.32
62864;BME280;48954;59.950;11.014;2024-03-23T05:47:26;97464.77;;;2.10;77.18
62864;BME280;48954;59.950;11.014;2024-03-23T05:49:51;97466.69;;;2.14;77.25
62864;BME280;48954;59.950;11.014;2024-03-23T05:52:18;97465.21;;;2.17;77.05
62864;BME280;48954;59.950;11.014;2024-03-23T05:54:46;97466.20;;;2.20;77.07
62864;BME280;48954;59.950;11.014;2024-03-23T05:57:12;97468.40;;;2.23;77.23
62864;BME280;48954;59.950;11.014;2024-03-23T05:59:38;97468.37;;;2.25;77.02
62864;BME280;48954;59.950;11.014;2024-03-23T06:02:04;97471.02;;;2.29;77.09
62864;BME280;48954;59.950;11.014;2024-03-23T06:04:30;97467.28;;;2.33;77.08
62864;BME280;48954;59.950;11.014;2024-03-23T06:06:56;97468.03;;;2.36;77.02
62864;BME280;48954;59.950;11.014;2024-03-23T06:09:24;97463.22;;;2.40;76.86
62864;BME280;48954;59.950;11.014;2024-03-23T06:11:50;97466.14;;;2.43;76.85
62864;BME280;48954;59.950;11.014;2024-03-23T06:14:16;97463.11;;;2.46;76.83
62864;BME280;48954;59.950;11.014;2024-03-23T06:16:43;97461.73;;;2.49;76.94
62864;BME280;48954;59.950;11.014;2024-03-23T06:19:09;97464.52;;;2.53;76.80
62864;BME280;48954;59.950;11.014;2024-03-23T06:21:35;97463.60;;;2.58;76.88
62864;BME280;48954;59.950;11.014;2024-03-23T06:24:01;97456.58;;;2.65;76.99
62864;BME280;48954;59.950;11.014;2024-03-23T06:26:27;97457.17;;;2.73;76.67
62864;BME280;48954;59.950;11.014;2024-03-23T06:28:54;97455.80;;;2.83;76.70
62864;BME280;48954;59.950;11.014;2024-03-23T06:31:19;97459.76;;;2.93;76.56
62864;BME280;48954;59.950;11.014;2024-03-23T06:33:46;97461.57;;;3.05;76.46
62864;BME280;48954;59.950;11.014;2024-03-23T06:36:12;97464.17;;;3.14;76.37
62864;BME280;48954;59.950;11.014;2024-03-23T06:38:38;97470.22;;;3.24;76.00
62864;BME280;48954;59.950;11.014;2024-03-23T06:41:05;97474.27;;;3.35;75.98
62864;BME280;48954;59.950;11.014;2024-03-23T06:43:31;97476.14;;;3.47;75.75
62864;BME280;48954;59.950;11.014;2024-03-23T06:45:57;97473.35;;;3.59;75.63
62864;BME280;48954;59.950;11.014;2024-03-23T06:48:24;97474.26;;;3.69;75.38
62864;BME280;48954;59.950;11.014;2024-03-23T06:50:55;97475.20;;;3.75;75.07
62864;BME280;48954;59.950;11.014;2024-03-23T06:53:22;97477.72;;;3.79;75.09
62864;BME280;48954;59.950;11.014;2024-03-23T06:55:54;97478.20;;;3.85;75.01
62864;BME280;48954;59.950;11.014;2024-03-23T06:58:21;97473.48;;;3.88;74.62
62864;BME280;48954;59.950;11.014;2024-03-23T07:00:53;97475.22;;;3.91;74.48
62864;BME280;48954;59.950;11.014;2024-03-23T07:03:21;97471.23;;;3.94;74.41
62864;BME280;48954;59.950;11.014;2024-03-23T07:05:48;97472.61;;;3.99;74.33
62864;BME280;48954;59.950;11.014;2024-03-23T07:08:16;97473.15;;;3.99;74.02
62864;BME280;48954;59.950;11.014;2024-03-23T07:10:42;97470.59;;;3.99;74.01
62864;BME280;48954;59.950;11.014;2024-03-23T07:13:09;97468.13;;;4.02;74.03
62864;BME280;48954;59.950;11.014;2024-03-23T07:15:36;97472.04;;;4.04;73.96
62864;BME280;48954;59.950;11.014;2024-03-23T07:18:02;97474.60;;;4.11;74.01
62864;BME280;48954;59.950;11.014;2024-03-23T07:20:28;97472.81;;;4.18;74.05
62864;BME280;48954;59.950;11.014;2024-03-23T07:22:55;97471.08;;;4.30;73.61
62864;BME280;48954;59.950;11.014;2024-03-23T07:25:21;97468.84;;;4.40;73.38
62864;BME280;48954;59.950;11.014;2024-03-23T07:27:47;97468.96;;;4.52;73.07
62864;BME280;48954;59.950;11.014;2024-03-23T07:30:14;97471.14;;;4.70;72.76
62864;BME280;48954;59.950;11.014;2024-03-23T07:32:40;97471.23;;;4.82;72.17
62864;BME280;48954;59.950;11.014;2024-03-23T07:35:07;97474.73;;;4.97;72.22
62864;BME280;48954;59.950;11.014;2024-03-23T07:37:33;97466.02;;;5.11;71.60
62864;BME280;48954;59.950;11.014;2024-03-23T07:39:59;97474.05;;;5.13;71.38
62864;BME280;48954;59.950;11.014;2024-03-23T07:42:34;97469.89;;;5.08;71.53
62864;BME280;48954;59.950;11.014;2024-03-23T07:45:00;97467.98;;;5.01;71.22
62864;BME280;48954;59.950;11.014;2024-03-23T07:47:26;97473.24;;;4.98;71.12
62864;BME280;48954;59.950;11.014;2024-03-23T07:49:54;97469.71;;;4.95;71.14
62864;BME280;48954;59.950;11.014;2024-03-23T07:52:20;97470.33;;;4.93;71.09
62864;BME280;48954;59.950;11.014;2024-03-23T07:54:46;97475.14;;;4.94;70.85
62864;BME280;48954;59.950;11.014;2024-03-23T07:57:12;97475.39;;;4.93;70.91
62864;BME280;48954;59.950;11.014;2024-03-23T07:59:39;97471.86;;;4.88;70.72
62864;BME280;48954;59.950;11.014;2024-03-23T08:02:05;97470.61;;;4.80;70.56
62864;BME280;48954;59.950;11.014;2024-03-23T08:04:32;97470.71;;;4.73;70.83
62864;BME280;48954;59.950;11.014;2024-03-23T08:07:00;97469.03;;;4.68;70.65
62864;BME280;48954;59.950;11.014;2024-03-23T08:09:28;97467.70;;;4.66;70.76
62864;BME280;48954;59.950;11.014;2024-03-23T08:11:54;97469.10;;;4.68;70.97
62864;BME280;48954;59.950;11.014;2024-03-23T08:14:23;97470.76;;;4.71;71.03
62864;BME280;48954;59.950;11.014;2024-03-23T08:16:49;97470.42;;;4.76;70.93
62864;BME280;48954;59.950;11.014;2024-03-23T08:19:30;97468.73;;;4.81;70.53
62864;BME280;48954;59.950;11.014;2024-03-23T08:21:56;97470.02;;;4.85;70.54
62864;BME280;48954;59.950;11.014;2024-03-23T08:24:25;97467.48;;;4.87;70.36
62864;BME280;48954;59.950;11.014;2024-03-23T08:27:06;97459.98;;;4.92;70.48
62864;BME280;48954;59.950;11.014;2024-03-23T08:29:58;97462.16;;;5.02;70.31
62864;BME280;48954;59.950;11.014;2024-03-23T08:32:39;97461.17;;;5.18;70.20
62864;BME280;48954;59.950;11.014;2024-03-23T08:35:21;97465.11;;;5.39;70.12
62864;BME280;48954;59.950;11.014;2024-03-23T08:38:27;97458.20;;;5.54;69.58
62864;BME280;48954;59.950;11.014;2024-03-23T08:41:28;97460.16;;;5.72;69.41
62864;BME280;48954;59.950;11.014;2024-03-23T08:44:29;97463.56;;;5.85;68.88
62864;BME280;48954;59.950;11.014;2024-03-23T08:47:07;97463.71;;;5.93;68.33
62864;BME280;48954;59.950;11.014;2024-03-23T08:49:37;97461.31;;;6.00;68.32
62864;BME280;48954;59.950;11.014;2024-03-23T08:52:09;97460.73;;;6.13;68.24
62864;BME280;48954;59.950;11.014;2024-03-23T08:54:38;97456.19;;;6.33;68.43
62864;BME280;48954;59.950;11.014;2024-03-23T08:57:04;97459.11;;;6.52;67.80
62864;BME280;48954;59.950;11.014;2024-03-23T08:59:51;97459.98;;;6.68;67.57
62864;BME280;48954;59.950;11.014;2024-03-23T09:02:53;97459.45;;;6.84;67.13
62864;BME280;48954;59.950;11.014;2024-03-23T09:05:38;97457.25;;;7.14;66.40
62864;BME280;48954;59.950;11.014;2024-03-23T09:08:19;97456.56;;;7.52;66.29
62864;BME280;48954;59.950;11.014;2024-03-23T09:11:22;97452.22;;;7.90;65.44
62864;BME280;48954;59.950;11.014;2024-03-23T09:14:00;97450.95;;;8.12;64.48
62864;BME280;48954;59.950;11.014;2024-03-23T09:16:43;97455.02;;;8.34;64.12
62864;BME280;48954;59.950;11.014;2024-03-23T09:19:28;97453.20;;;8.63;63.88
62864;BME280;48954;59.950;11.014;2024-03-23T09:22:10;97446.86;;;8.84;62.92
62864;BME280;48954;59.950;11.014;2024-03-23T09:24:51;97451.75;;;8.80;62.68
62864;BME280;48954;59.950;11.014;2024-03-23T09:27:33;97448.92;;;8.82;62.74
62864;BME280;48954;59.950;11.014;2024-03-23T09:29:59;97450.85;;;8.83;61.99
62864;BME280;48954;59.950;11.014;2024-03-23T09:32:25;97450.95;;;8.80;61.60
62864;BME280;48954;59.950;11.014;2024-03-23T09:34:52;97448.70;;;8.78;61.83
62864;BME280;48954;59.950;11.014;2024-03-23T09:37:18;97444.77;;;8.90;61.43
62864;BME280;48954;59.950;11.014;2024-03-23T09:39:45;97441.58;;;8.98;61.21
62864;BME280;48954;59.950;11.014;2024-03-23T09:42:12;97442.52;;;9.16;60.89
62864;BME280;48954;59.950;11.014;2024-03-23T09:44:39;97434.35;;;9.34;60.50
62864;BME280;48954;59.950;11.014;2024-03-23T09:47:04;97435.63;;;9.62;60.17
62864;BME280;48954;59.950;11.014;2024-03-23T09:49:33;97435.63;;;9.90;59.84
62864;BME280;48954;59.950;11.014;2024-03-23T09:52:00;97438.98;;;10.19;59.67
62864;BME280;48954;59.950;11.014;2024-03-23T09:54:27;97439.36;;;10.30;57.63
62864;BME280;48954;59.950;11.014;2024-03-23T09:56:54;97440.73;;;10.46;57.81
62864;BME280;48954;59.950;11.014;2024-03-23T09:59:20;97435.38;;;10.57;57.12
62864;BME280;48954;59.950;11.014;2024-03-23T10:01:50;97437.81;;;10.58;56.46
62864;BME280;48954;59.950;11.014;2024-03-23T10:04:41;97438.88;;;10.43;56.96
62864;BME280;48954;59.950;11.014;2024-03-23T10:07:18;97442.15;;;10.56;56.79
62864;BME280;48954;59.950;11.014;2024-03-23T10:10:12;97441.52;;;10.97;55.02
62864;BME280;48954;59.950;11.014;2024-03-23T10:12:49;97442.14;;;11.07;55.64
62864;BME280;48954;59.950;11.014;2024-03-23T10:15:25;97440.64;;;11.03;55.17
62864;BME280;48954;59.950;11.014;2024-03-23T10:17:52;97439.45;;;11.08;54.34
62864;BME280;48954;59.950;11.014;2024-03-23T10:20:23;97436.64;;;11.17;54.68
62864;BME280;48954;59.950;11.014;2024-03-23T10:22:50;97437.79;;;10.99;54.32
62864;BME280;48954;59.950;11.014;2024-03-23T10:25:22;97432.19;;;10.61;54.24
62864;BME280;48954;59.950;11.014;2024-03-23T10:27:59;97432.29;;;10.43;53.95
62864;BME280;48954;59.950;11.014;2024-03-23T10:30:28;97432.29;;;10.65;53.54
62864;BME280;48954;59.950;11.014;2024-03-23T10:33:10;97426.46;;;10.95;53.12
62864;BME280;48954;59.950;11.014;2024-03-23T10:35:37;97428.39;;;10.79;53.27
62864;BME280;48954;59.950;11.014;2024-03-23T10:38:05;97434.13;;;10.72;53.43
62864;BME280;48954;59.950;11.014;2024-03-23T10:40:35;97434.02;;;10.80;53.86
62864;BME280;48954;59.950;11.014;2024-03-23T10:43:04;97435.98;;;10.79;53.41
62864;BME280;48954;59.950;11.014;2024-03-23T10:45:32;97438.96;;;10.36;54.02
62864;BME280;48954;59.950;11.014;2024-03-23T10:47:58;97439.45;;;9.72;55.16
62864;BME280;48954;59.950;11.014;2024-03-23T10:50:25;97441.18;;;9.16;56.14
62864;BME280;48954;59.950;11.014;2024-03-23T10:52:53;97446.95;;;8.71;56.61
62864;BME280;48954;59.950;11.014;2024-03-23T10:55:22;97445.47;;;8.33;57.43
62864;BME280;48954;59.950;11.014;2024-03-23T10:57:52;97450.71;;;8.32;57.69
62864;BME280;48954;59.950;11.014;2024-03-23T11:00:23;97452.05;;;8.59;57.63
62864;BME280;48954;59.950;11.014;2024-03-23T11:02:49;97448.92;;;8.79;57.53
62864;BME280;48954;59.950;11.014;2024-03-23T11:07:53;97447.90;;;9.18;57.56
62864;BME280;48954;59.950;11.014;2024-03-23T11:10:27;97447.56;;;9.20;57.94
62864;BME280;48954;59.950;11.014;2024-03-23T11:12:53;97453.01;;;9.26;57.94
62864;BME280;48954;59.950;11.014;2024-03-23T11:15:22;97447.59;;;9.35;58.05
62864;BME280;48954;59.950;11.014;2024-03-23T11:18:04;97445.13;;;9.75;58.55
62864;BME280;48954;59.950;11.014;2024-03-23T11:20:32;97442.66;;;9.72;58.01
62864;BME280;48954;59.950;11.014;2024-03-23T11:23:00;97443.52;;;9.48;58.57
62864;BME280;48954;59.950;11.014;2024-03-23T11:25:28;97442.77;;;9.40;58.72
62864;BME280;48954;59.950;11.014;2024-03-23T11:27:56;97446.11;;;9.17;58.82
62864;BME280;48954;59.950;11.014;2024-03-23T11:30:29;97444.85;;;9.08;59.13
62864;BME280;48954;59.950;11.014;2024-03-23T11:32:56;97440.92;;;8.91;59.17
62864;BME280;48954;59.950;11.014;2024-03-23T11:38:15;97444.35;;;9.21;59.49
62864;BME280;48954;59.950;11.014;2024-03-23T11:40:42;97443.60;;;9.25;59.16
62864;BME280;48954;59.950;11.014;2024-03-23T11:43:13;97443.98;;;9.19;59.31
62864;BME280;48954;59.950;11.014;2024-03-23T11:45:43;97445.14;;;9.03;59.21
62864;BME280;48954;59.950;11.014;2024-03-23T11:48:13;97443.48;;;8.76;59.45
62864;BME280;48954;59.950;11.014;2024-03-23T11:50:41;97450.30;;;8.50;59.93
62864;BME280;48954;59.950;11.014;2024-03-23T11:58:11;97448.63;;;9.55;58.99
62864;BME280;48954;59.950;11.014;2024-03-23T12:00:40;97450.80;;;9.87;58.75
62864;BME280;48954;59.950;11.014;2024-03-23T12:03:06;97450.79;;;9.87;58.54
62864;BME280;48954;59.950;11.014;2024-03-23T12:05:33;97450.98;;;9.71;58.66
62864;BME280;48954;59.950;11.014;2024-03-23T12:08:18;97454.02;;;9.35;58.95
62864;BME280;48954;59.950;11.014;2024-03-23T12:10:46;97456.52;;;8.99;59.61
62864;BME280;48954;59.950;11.014;2024-03-23T12:13:15;97463.55;;;8.84;60.16
62864;BME280;48954;59.950;11.014;2024-03-23T12:15:41;97459.32;;;8.73;60.40
62864;BME280;48954;59.950;11.014;2024-03-23T12:18:09;97461.73;;;8.63;60.86
62864;BME280;48954;59.950;11.014;2024-03-23T12:20:36;97457.47;;;8.68;61.14
62864;BME280;48954;59.950;11.014;2024-03-23T12:23:06;97455.26;;;8.81;61.55
62864;BME280;48954;59.950;11.014;2024-03-23T12:25:32;97456.41;;;9.04;61.15
62864;BME280;48954;59.950;11.014;2024-03-23T12:27:59;97455.34;;;9.10;61.14
62864;BME280;48954;59.950;11.014;2024-03-23T12:30:25;97452.90;;;9.02;60.95
62864;BME280;48954;59.950;11.014;2024-03-23T12:32:51;97452.83;;;8.81;60.99
62864;BME280;48954;59.950;11.014;2024-03-23T12:35:17;97459.42;;;8.58;61.09
62864;BME280;48954;59.950;11.014;2024-03-23T12:37:43;97456.85;;;8.40;61.23
62864;BME280;48954;59.950;11.014;2024-03-23T12:40:10;97455.00;;;8.17;61.79
62864;BME280;48954;59.950;11.014;2024-03-23T12:42:35;97455.63;;;8.01;61.89
62864;BME280;48954;59.950;11.014;2024-03-23T12:45:02;97451.96;;;7.94;62.04
62864;BME280;48954;59.950;11.014;2024-03-23T12:47:28;97449.31;;;7.95;62.25
62864;BME280;48954;59.950;11.014;2024-03-23T12:49:54;97451.65;;;7.98;62.09
62864;BME280;48954;59.950;11.014;2024-03-23T12:52:22;97447.83;;;7.95;62.03
62864;BME280;48954;59.950;11.014;2024-03-23T12:54:50;97451.14;;;7.90;62.25
62864;BME280;48954;59.950;11.014;2024-03-23T12:57:16;97450.19;;;7.92;62.30
62864;BME280;48954;59.950;11.014;2024-03-23T12:59:42;97450.82;;;7.90;62.25
62864;BME280;48954;59.950;11.014;2024-03-23T13:02:07;97449.38;;;7.96;62.43
62864;BME280;48954;59.950;11.014;2024-03-23T13:04:33;97446.39;;;7.84;62.34
62864;BME280;48954;59.950;11.014;2024-03-23T13:07:02;97446.45;;;7.66;62.52
62864;BME280;48954;59.950;11.014;2024-03-23T13:09:28;97442.50;;;7.52;62.81
62864;BME280;48954;59.950;11.014;2024-03-23T13:11:54;97443.53;;;7.47;63.24
62864;BME280;48954;59.950;11.014;2024-03-23T13:14:21;97440.33;;;7.48;63.52
62864;BME280;48954;59.950;11.014;2024-03-23T13:16:46;97441.11;;;7.48;63.30
62864;BME280;48954;59.950;11.014;2024-03-23T13:19:12;97437.52;;;7.50;63.51
62864;BME280;48954;59.950;11.014;2024-03-23T13:21:58;97436.81;;;7.49;63.74
62864;BME280;48954;59.950;11.014;2024-03-23T13:24:27;97442.44;;;7.45;64.09
62864;BME280;48954;59.950;11.014;2024-03-23T13:26:54;97437.29;;;7.41;63.88
62864;BME280;48954;59.950;11.014;2024-03-23T13:29:20;97428.39;;;7.40;64.17
62864;BME280;48954;59.950;11.014;2024-03-23T13:31:47;97431.51;;;7.42;64.11
62864;BME280;48954;59.950;11.014;2024-03-23T13:34:16;97430.12;;;7.34;64.15
62864;BME280;48954;59.950;11.014;2024-03-23T13:36:43;97433.96;;;7.25;64.22
62864;BME280;48954;59.950;11.014;2024-03-23T13:39:10;97431.88;;;7.12;64.45
62864;BME280;48954;59.950;11.014;2024-03-23T13:41:39;97432.27;;;7.05;64.53
62864;BME280;48954;59.950;11.014;2024-03-23T13:44:06;97435.80;;;6.99;64.61
62864;BME280;48954;59.950;11.014;2024-03-23T13:46:36;97435.88;;;6.88;64.73
62864;BME280;48954;59.950;11.014;2024-03-23T13:49:02;97431.90;;;6.84;64.96
62864;BME280;48954;59.950;11.014;2024-03-23T13:51:28;97435.42;;;6.85;64.95
62864;BME280;48954;59.950;11.014;2024-03-23T13:53:54;97437.13;;;6.80;65.09
62864;BME280;48954;59.950;11.014;2024-03-23T13:56:20;97435.02;;;6.80;65.49
62864;BME280;48954;59.950;11.014;2024-03-23T13:58:47;97435.95;;;6.77;65.24
62864;BME280;48954;59.950;11.014;2024-03-23T14:01:14;97436.42;;;6.72;65.24
62864;BME280;48954;59.950;11.014;2024-03-23T14:03:40;97433.45;;;6.69;65.16
62864;BME280;48954;59.950;11.014;2024-03-23T14:06:06;97430.40;;;6.66;65.38
62864;BME280;48954;59.950;11.014;2024-03-23T14:08:32;97432.52;;;6.69;65.45
62864;BME280;48954;59.950;11.014;2024-03-23T14:10:58;97428.77;;;6.74;65.20